createdAt,value
2018-05-07T00:01:55.705Z,17.95
2018-05-07T00:04:23.326Z,17.97
2018-05-07T00:06:51.005Z,17.95
2018-05-07T00:09:18.709Z,18.01
2018-05-07T00:11:46.352Z,17.91
2018-05-07T00:14:15.618Z,17.94
2018-05-07T00:16:43.234Z,17.97
2018-05-07T00:19:10.949Z,17.96
2018-05-07T00:21:38.643Z,17.99
2018-05-07T00:24:06.405Z,18.05
2018-05-07T00:26:34.056Z,18.06
2018-05-07T00:29:01.650Z,18.05
2018-05-07T00:31:29.254Z,17.99
2018-05-07T00:33:56.874Z,17.95
2018-05-07T00:36:24.485Z,17.97
2018-05-07T00:38:52.093Z,17.93
2018-05-07T00:41:19.705Z,17.94
2018-05-07T00:43:47.293Z,17.88
2018-05-07T00:46:14.885Z,17.88
2018-05-07T00:48:42.574Z,17.97
2018-05-07T00:51:10.165Z,17.95
2018-05-07T00:53:37.758Z,17.82
2018-05-07T00:56:05.409Z,17.95
2018-05-07T00:58:32.993Z,17.91
2018-05-07T01:01:00.586Z,17.90
2018-05-07T01:03:28.225Z,17.91
2018-05-07T01:05:55.834Z,18.09
2018-05-07T01:08:23.415Z,18.03
2018-05-07T01:10:51.064Z,18.17
2018-05-07T01:13:18.645Z,18.15
2018-05-07T01:15:46.244Z,18.15
2018-05-07T01:18:13.874Z,18.23
2018-05-07T01:20:41.455Z,18.10
2018-05-07T01:23:09.033Z,18.08
2018-05-07T01:25:36.701Z,17.90
2018-05-07T01:28:04.285Z,17.88
2018-05-07T01:30:31.885Z,17.80
2018-05-07T01:32:59.505Z,17.73
2018-05-07T01:35:27.113Z,17.78
2018-05-07T01:37:54.730Z,17.69
2018-05-07T01:40:22.430Z,17.74
2018-05-07T01:42:50.113Z,17.77
2018-05-07T01:45:17.737Z,17.79
2018-05-07T01:47:45.378Z,17.76
2018-05-07T01:50:13.097Z,17.69
2018-05-07T01:52:40.853Z,17.76
2018-05-07T01:55:08.490Z,17.72
2018-05-07T01:57:36.098Z,17.72
2018-05-07T02:00:03.749Z,17.71
2018-05-07T02:02:31.438Z,17.69
2018-05-07T02:04:59.097Z,17.75
2018-05-07T02:07:26.753Z,17.76
2018-05-07T02:09:54.490Z,17.68
2018-05-07T02:12:22.190Z,17.76
2018-05-07T02:14:49.834Z,17.75
2018-05-07T02:17:17.490Z,17.80
2018-05-07T02:19:45.126Z,17.73
2018-05-07T02:22:12.738Z,17.80
2018-05-07T02:24:40.373Z,17.76
2018-05-07T02:27:08.042Z,17.76
2018-05-07T02:29:35.710Z,17.74
2018-05-07T02:32:03.403Z,17.86
2018-05-07T02:34:31.050Z,17.87
2018-05-07T02:36:58.703Z,17.77
2018-05-07T02:39:26.314Z,17.74
2018-05-07T02:41:54.025Z,17.69
2018-05-07T02:44:21.657Z,17.49
2018-05-07T02:46:49.261Z,17.29
2018-05-07T02:49:16.951Z,17.19
2018-05-07T02:51:44.653Z,17.17
2018-05-07T02:54:12.270Z,17.13
2018-05-07T02:56:39.898Z,17.06
2018-05-07T02:59:07.508Z,17.03
2018-05-07T03:01:35.088Z,17.06
2018-05-07T03:04:02.706Z,17.03
2018-05-07T03:06:30.291Z,17.02
2018-05-07T03:08:57.892Z,17.00
2018-05-07T03:11:25.517Z,16.97
2018-05-07T03:13:53.104Z,16.94
2018-05-07T03:16:20.716Z,16.95
2018-05-07T03:18:48.305Z,16.93
2018-05-07T03:21:15.928Z,16.93
2018-05-07T03:23:43.521Z,16.89
2018-05-07T03:26:11.137Z,16.92
2018-05-07T03:28:38.785Z,17.03
2018-05-07T03:31:06.404Z,16.99
2018-05-07T03:33:33.989Z,16.93
2018-05-07T03:41:47.101Z,16.91
2018-05-07T03:44:14.705Z,16.86
2018-05-07T03:46:42.333Z,16.95
2018-05-07T03:49:10.038Z,16.90
2018-05-07T03:51:37.624Z,16.93
2018-05-07T03:54:06.037Z,17.02
2018-05-07T03:56:33.622Z,16.96
2018-05-07T03:59:01.248Z,17.07
2018-05-07T04:01:28.877Z,17.09
2018-05-07T04:03:56.477Z,17.16
2018-05-07T04:06:24.059Z,17.13
2018-05-07T04:08:51.719Z,17.11
2018-05-07T04:11:19.473Z,17.20
2018-05-07T04:13:47.165Z,17.28
2018-05-07T04:19:28.116Z,17.36
2018-05-07T04:22:07.412Z,17.38
2018-05-07T04:24:35.101Z,17.50
2018-05-07T04:27:02.709Z,17.59
2018-05-07T04:29:30.381Z,17.60
2018-05-07T04:31:57.970Z,17.59
2018-05-07T04:34:25.553Z,17.60
2018-05-07T04:36:53.212Z,17.60
2018-05-07T04:39:20.790Z,17.63
2018-05-07T04:41:48.373Z,17.71
2018-05-07T04:44:15.974Z,17.70
2018-05-07T04:46:43.569Z,17.74
2018-05-07T04:49:11.672Z,17.72
2018-05-07T04:51:39.250Z,17.81
2018-05-07T04:54:06.845Z,17.90
2018-05-07T04:56:34.453Z,17.81
2018-05-07T04:59:02.061Z,17.84
2018-05-07T05:01:29.685Z,17.82
2018-05-07T05:03:57.264Z,17.81
2018-05-07T05:06:24.877Z,17.87
2018-05-07T05:08:52.461Z,17.87
2018-05-07T05:11:20.044Z,18.01
2018-05-07T05:13:47.625Z,18.18
2018-05-07T05:16:15.241Z,18.17
2018-05-07T05:18:42.937Z,18.26
2018-05-07T05:21:10.687Z,18.35
2018-05-07T05:23:38.209Z,18.36
2018-05-07T05:26:05.809Z,18.40
2018-05-07T05:28:33.389Z,18.37
2018-05-07T05:31:01.018Z,18.39
2018-05-07T05:33:28.605Z,18.35
2018-05-07T05:35:56.274Z,18.31
2018-05-07T05:38:24.010Z,18.23
2018-05-07T05:40:52.165Z,18.28
2018-05-07T05:43:19.873Z,18.22
2018-05-07T05:50:58.641Z,18.11
2018-05-07T05:53:36.028Z,18.18
2018-05-07T05:56:04.472Z,18.29
2018-05-07T05:58:32.218Z,18.25
2018-05-07T06:00:59.951Z,18.35
2018-05-07T06:03:27.614Z,18.29
2018-05-07T06:05:55.197Z,18.19
2018-05-07T06:08:22.800Z,18.21
2018-05-07T06:10:50.421Z,18.12
2018-05-07T06:13:18.001Z,18.14
2018-05-07T06:15:45.659Z,18.03
2018-05-07T06:18:13.332Z,18.08
2018-05-07T06:20:40.933Z,17.92
2018-05-07T06:23:08.521Z,17.85
2018-05-07T06:25:36.197Z,17.82
2018-05-07T06:28:03.805Z,17.72
2018-05-07T06:30:31.450Z,17.76
2018-05-07T06:32:59.052Z,17.82
2018-05-07T06:35:26.673Z,17.75
2018-05-07T06:37:54.321Z,17.72
2018-05-07T06:40:21.913Z,17.69
2018-05-07T06:42:49.545Z,17.79
2018-05-07T06:45:17.138Z,17.90
2018-05-07T06:47:44.783Z,17.89
2018-05-07T06:50:12.439Z,18.09
2018-05-07T06:52:40.094Z,18.26
2018-05-07T06:55:07.694Z,18.35
2018-05-07T06:57:35.349Z,18.39
2018-05-07T07:00:02.941Z,18.56
2018-05-07T07:02:30.637Z,18.64
2018-05-07T07:04:58.221Z,19.00
2018-05-07T07:07:25.824Z,19.06
2018-05-07T07:09:53.552Z,19.08
2018-05-07T07:12:21.146Z,19.35
2018-05-07T07:14:48.769Z,19.57
2018-05-07T07:17:16.361Z,19.63
2018-05-07T07:19:44.069Z,19.59
2018-05-07T07:22:11.847Z,19.30
2018-05-07T07:24:39.453Z,19.25
2018-05-07T07:27:07.066Z,19.15
2018-05-07T07:29:34.688Z,19.15
2018-05-07T07:32:02.357Z,19.15
2018-05-07T07:34:29.941Z,19.16
2018-05-07T07:36:57.529Z,19.28
2018-05-07T07:39:25.271Z,19.37
2018-05-07T07:41:52.847Z,19.37
2018-05-07T07:44:20.489Z,19.43
2018-05-07T07:46:48.207Z,19.62
2018-05-07T07:49:15.813Z,19.68
2018-05-07T07:51:43.557Z,19.89
2018-05-07T07:54:11.149Z,20.16
2018-05-07T07:56:38.768Z,20.26
2018-05-07T07:59:06.381Z,20.31
2018-05-07T08:01:34.078Z,20.27
2018-05-07T08:04:01.705Z,20.27
2018-05-07T08:06:29.378Z,19.98
2018-05-07T08:08:57.012Z,20.11
2018-05-07T08:11:24.677Z,20.24
2018-05-07T08:13:52.286Z,20.30
2018-05-07T08:16:20.305Z,20.20
2018-05-07T08:18:57.786Z,20.53
2018-05-07T08:21:25.655Z,20.78
2018-05-07T08:23:53.535Z,21.01
2018-05-07T08:26:21.198Z,21.14
2018-05-07T08:28:48.833Z,21.35
2018-05-07T08:31:16.421Z,21.58
2018-05-07T08:33:44.887Z,21.74
2018-05-07T08:36:12.694Z,21.84
2018-05-07T08:38:40.339Z,22.35
2018-05-07T08:41:07.935Z,22.46
2018-05-07T08:43:35.694Z,22.44
2018-05-07T08:46:03.305Z,22.07
2018-05-07T08:48:31.043Z,21.96
2018-05-07T08:50:58.786Z,22.27
2018-05-07T08:53:26.553Z,22.46
2018-05-07T08:55:54.217Z,22.60
2018-05-07T08:58:21.957Z,22.88
2018-05-07T09:00:49.653Z,23.30
2018-05-07T09:03:17.278Z,24.69
2018-05-07T09:05:49.741Z,25.12
2018-05-07T09:08:17.362Z,25.18
2018-05-07T09:10:46.018Z,25.28
2018-05-07T09:13:13.750Z,25.41
2018-05-07T09:15:42.338Z,25.52
2018-05-07T09:18:12.649Z,25.11
2018-05-07T09:20:40.462Z,24.87
2018-05-07T09:23:08.189Z,24.68
2018-05-07T09:25:35.873Z,24.16
2018-05-07T09:28:03.573Z,23.85
2018-05-07T09:30:31.249Z,23.71
2018-05-07T09:32:58.940Z,23.55
2018-05-07T09:35:27.242Z,23.48
2018-05-07T09:37:54.869Z,23.76
2018-05-07T09:40:22.453Z,23.75
2018-05-07T09:42:50.190Z,23.58
2018-05-07T09:45:17.757Z,23.18
2018-05-07T09:47:45.381Z,23.33
2018-05-07T09:50:12.969Z,23.17
2018-05-07T09:52:40.546Z,23.24
2018-05-07T09:55:08.157Z,23.28
2018-05-07T09:57:35.746Z,23.45
2018-05-07T10:00:03.384Z,23.37
2018-05-07T10:02:31.119Z,23.68
2018-05-07T10:04:58.679Z,23.91
2018-05-07T10:07:26.297Z,23.86
2018-05-07T10:09:53.921Z,24.09
2018-05-07T10:12:26.572Z,24.23
2018-05-07T10:14:54.318Z,24.16
2018-05-07T10:17:21.981Z,24.26
2018-05-07T10:19:49.821Z,24.24
2018-05-07T10:22:18.182Z,24.33
2018-05-07T10:24:45.911Z,23.96
2018-05-07T10:27:13.591Z,24.26
2018-05-07T10:29:41.234Z,23.83
2018-05-07T10:32:08.925Z,23.75
2018-05-07T10:34:36.621Z,23.71
2018-05-07T10:37:04.289Z,23.85
2018-05-07T10:39:31.914Z,24.33
2018-05-07T10:41:59.703Z,24.78
2018-05-07T10:44:27.285Z,25.17
2018-05-07T10:46:54.891Z,25.61
2018-05-07T10:49:22.477Z,26.20
2018-05-07T10:51:50.079Z,27.07
2018-05-07T10:54:19.297Z,27.21
2018-05-07T10:56:46.921Z,28.91
2018-05-07T10:59:14.505Z,29.50
2018-05-07T11:01:42.144Z,29.94
2018-05-07T11:04:09.697Z,30.09
2018-05-07T11:06:37.281Z,30.28
2018-05-07T11:09:05.649Z,30.26
2018-05-07T11:11:33.227Z,30.47
2018-05-07T11:14:00.853Z,31.21
2018-05-07T11:16:28.470Z,30.77
2018-05-07T11:18:56.049Z,30.46
2018-05-07T11:21:23.674Z,30.67
2018-05-07T11:23:51.249Z,30.97
2018-05-07T11:26:18.889Z,30.97
2018-05-07T11:28:46.486Z,30.32
2018-05-07T11:31:14.072Z,30.52
2018-05-07T11:33:41.721Z,30.19
2018-05-07T11:36:09.378Z,29.96
2018-05-07T11:38:36.956Z,30.38
2018-05-07T11:41:04.555Z,30.32
2018-05-07T11:43:32.189Z,30.40
2018-05-07T11:45:59.825Z,30.58
2018-05-07T11:48:27.439Z,29.95
2018-05-07T11:50:55.021Z,30.03
2018-05-07T11:53:22.660Z,30.22
2018-05-07T11:55:50.241Z,29.76
2018-05-07T11:58:17.891Z,29.80
2018-05-07T12:00:45.519Z,30.42
2018-05-07T12:03:13.102Z,30.54
2018-05-07T12:05:40.776Z,30.89
2018-05-07T12:08:08.473Z,30.95
2018-05-07T12:10:36.139Z,30.82
2018-05-07T12:13:03.766Z,29.98
2018-05-07T12:15:31.374Z,30.37
2018-05-07T12:17:59.005Z,29.88
2018-05-07T12:20:26.669Z,30.17
2018-05-07T12:22:54.293Z,29.21
2018-05-07T12:25:22.010Z,28.93
2018-05-07T12:27:49.616Z,29.19
2018-05-07T12:30:17.226Z,28.65
2018-05-07T12:32:44.902Z,28.66
2018-05-07T12:35:12.527Z,28.78
2018-05-07T12:37:40.172Z,28.65
2018-05-07T12:40:07.778Z,29.41
2018-05-07T12:42:35.405Z,28.76
2018-05-07T12:45:03.066Z,29.53
2018-05-07T12:47:30.669Z,29.18
2018-05-07T12:49:58.289Z,28.70
2018-05-07T12:52:25.992Z,28.35
2018-05-07T12:54:53.633Z,28.65
2018-05-07T12:57:21.290Z,28.71
2018-05-07T12:59:49.062Z,29.10
2018-05-07T13:02:16.758Z,28.53
2018-05-07T13:04:44.490Z,28.61
2018-05-07T13:07:12.196Z,28.18
2018-05-07T13:09:39.838Z,27.55
2018-05-07T13:12:07.512Z,27.69
2018-05-07T13:14:35.114Z,27.23
2018-05-07T13:17:02.729Z,27.10
2018-05-07T13:19:30.410Z,27.30
2018-05-07T13:21:58.037Z,27.24
2018-05-07T13:24:25.714Z,26.51
2018-05-07T13:26:53.341Z,26.85
2018-05-07T13:29:20.921Z,26.89
2018-05-07T13:31:48.530Z,26.85
2018-05-07T13:34:16.162Z,26.27
2018-05-07T13:36:43.769Z,26.30
2018-05-07T13:39:11.357Z,26.44
2018-05-07T13:41:38.974Z,26.38
2018-05-07T13:44:06.565Z,26.20
2018-05-07T13:46:34.189Z,25.78
2018-05-07T13:49:01.825Z,26.31
2018-05-07T13:51:29.405Z,26.15
2018-05-07T13:53:57.020Z,25.94
2018-05-07T13:56:25.256Z,25.78
2018-05-07T13:58:52.880Z,25.96
2018-05-07T14:01:20.470Z,25.91
2018-05-07T14:03:48.096Z,26.01
2018-05-07T14:06:15.710Z,25.83
2018-05-07T14:08:43.297Z,25.89
2018-05-07T14:11:10.929Z,25.95
2018-05-07T14:13:38.545Z,25.78
2018-05-07T14:16:06.183Z,25.73
2018-05-07T14:18:33.826Z,25.68
2018-05-07T14:21:01.445Z,25.65
2018-05-07T14:23:29.046Z,25.53
2018-05-07T14:25:56.633Z,25.66
2018-05-07T14:28:24.301Z,25.42
2018-05-07T14:30:51.886Z,25.54
2018-05-07T14:33:19.469Z,25.54
2018-05-07T14:35:47.139Z,25.59
2018-05-07T14:38:14.755Z,25.39
2018-05-07T14:40:42.405Z,25.32
2018-05-07T14:43:10.034Z,25.38
2018-05-07T14:45:37.668Z,25.39
2018-05-07T14:48:05.256Z,25.39
2018-05-07T14:50:32.854Z,25.36
2018-05-07T14:53:00.453Z,25.29
2018-05-07T14:55:28.082Z,25.16
2018-05-07T14:57:55.748Z,25.28
2018-05-07T15:00:23.466Z,25.37
2018-05-07T15:02:51.149Z,25.78
2018-05-07T15:05:18.862Z,25.76
2018-05-07T15:07:46.525Z,25.45
2018-05-07T15:10:14.245Z,25.33
2018-05-07T15:12:41.943Z,25.37
2018-05-07T15:15:09.647Z,25.79
2018-05-07T15:17:37.267Z,25.69
2018-05-07T15:20:04.991Z,25.42
2018-05-07T15:22:32.625Z,25.59
2018-05-07T15:25:00.292Z,25.49
2018-05-07T15:27:27.985Z,25.26
2018-05-07T15:29:55.659Z,25.16
2018-05-07T15:32:23.336Z,24.86
2018-05-07T15:34:51.081Z,24.84
2018-05-07T15:37:18.786Z,24.68
2018-05-07T15:39:46.426Z,24.75
2018-05-07T15:42:14.133Z,24.80
2018-05-07T15:44:41.836Z,24.91
2018-05-07T15:47:09.547Z,24.65
2018-05-07T15:49:37.281Z,24.68
2018-05-07T15:52:04.984Z,24.75
2018-05-07T15:54:32.640Z,24.70
2018-05-07T15:57:00.278Z,24.66
2018-05-07T15:59:27.903Z,24.43
2018-05-07T16:01:55.583Z,24.36
2018-05-07T16:04:23.628Z,24.46
2018-05-07T16:06:51.271Z,24.46
2018-05-07T16:09:18.937Z,24.37
2018-05-07T16:11:46.610Z,24.22
2018-05-07T16:14:14.310Z,24.15
2018-05-07T16:16:41.996Z,24.08
2018-05-07T16:19:09.641Z,24.10
2018-05-07T16:21:37.458Z,24.12
2018-05-07T16:24:05.171Z,23.97
2018-05-07T16:26:32.876Z,23.99
2018-05-07T16:29:00.571Z,23.89
2018-05-07T16:31:28.265Z,23.93
2018-05-07T16:33:55.991Z,23.94
2018-05-07T16:36:23.608Z,23.77
2018-05-07T16:38:51.330Z,23.68
2018-05-07T16:41:19.003Z,23.51
2018-05-07T16:43:46.640Z,23.62
2018-05-07T16:46:14.358Z,23.48
2018-05-07T16:48:42.057Z,23.44
2018-05-07T16:51:09.789Z,23.43
2018-05-07T16:53:37.462Z,23.50
2018-05-07T16:56:05.091Z,23.52
2018-05-07T16:58:32.705Z,23.53
2018-05-07T17:01:00.338Z,23.46
2018-05-07T17:03:27.983Z,23.30
2018-05-07T17:05:55.710Z,23.05
2018-05-07T17:08:23.427Z,22.94
2018-05-07T17:10:51.065Z,22.81
2018-05-07T17:13:18.746Z,22.79
2018-05-07T17:15:46.999Z,22.84
2018-05-07T17:18:14.682Z,22.74
2018-05-07T17:20:42.363Z,22.67
2018-05-07T17:23:10.177Z,22.57
2018-05-07T17:25:37.898Z,22.61
2018-05-07T17:28:05.611Z,22.42
2018-05-07T17:30:33.325Z,22.38
2018-05-07T17:33:00.969Z,22.28
2018-05-07T17:35:28.622Z,22.28
2018-05-07T17:37:56.360Z,22.12
2018-05-07T17:40:24.056Z,22.12
2018-05-07T17:42:51.683Z,22.00
2018-05-07T17:45:30.950Z,21.87
2018-05-07T17:48:10.421Z,21.78
2018-05-07T17:50:38.159Z,21.72
2018-05-07T17:53:05.845Z,21.59
2018-05-07T17:55:33.470Z,21.65
2018-05-07T17:58:01.278Z,21.65
2018-05-07T18:00:28.909Z,21.76
2018-05-07T18:02:56.625Z,21.80
2018-05-07T18:05:24.326Z,21.82
2018-05-07T18:07:51.952Z,21.83
2018-05-07T18:10:19.688Z,21.90
2018-05-07T18:12:47.390Z,21.96
2018-05-07T18:15:15.072Z,21.90
2018-05-07T18:17:42.701Z,21.87
2018-05-07T18:20:10.368Z,21.84
2018-05-07T18:22:38.005Z,21.87
2018-05-07T18:25:05.646Z,21.99
2018-05-07T18:27:33.286Z,21.99
2018-05-07T18:30:01.102Z,21.94
2018-05-07T18:32:28.706Z,21.86
2018-05-07T18:34:56.342Z,21.88
2018-05-07T18:37:23.997Z,21.78
2018-05-07T18:39:51.650Z,21.61
2018-05-07T18:42:19.287Z,21.53
2018-05-07T18:44:46.910Z,21.56
2018-05-07T18:47:14.652Z,21.46
2018-05-07T18:49:42.929Z,21.51
2018-05-07T18:52:10.712Z,21.48
2018-05-07T18:54:38.329Z,21.50
2018-05-07T18:57:05.965Z,21.53
2018-05-07T18:59:33.605Z,21.40
2018-05-07T19:02:01.341Z,21.21
2018-05-07T19:04:29.030Z,21.07
2018-05-07T19:06:56.749Z,20.91
2018-05-07T19:09:24.406Z,20.71
2018-05-07T19:11:52.122Z,20.49
2018-05-07T19:14:19.812Z,20.44
2018-05-07T19:16:47.556Z,20.38
2018-05-07T19:19:15.302Z,20.37
2018-05-07T19:21:43.002Z,20.24
2018-05-07T19:24:10.691Z,20.09
2018-05-07T19:26:38.390Z,19.99
2018-05-07T19:29:06.042Z,19.90
2018-05-07T19:31:33.674Z,19.73
2018-05-07T19:34:01.751Z,19.71
2018-05-07T19:36:29.394Z,19.58
2018-05-07T19:38:57.075Z,19.45
2018-05-07T19:41:24.763Z,19.41
2018-05-07T19:43:52.404Z,19.31
2018-05-07T19:46:20.219Z,19.42
2018-05-07T19:48:47.872Z,19.27
2018-05-07T19:51:15.634Z,19.24
2018-05-07T19:53:43.334Z,19.07
2018-05-07T19:56:11.006Z,19.03
2018-05-07T19:58:38.678Z,19.14
2018-05-07T20:01:06.431Z,19.03
2018-05-07T20:03:34.046Z,18.99
2018-05-07T20:06:01.693Z,19.04
2018-05-07T20:08:29.363Z,19.23
2018-05-07T20:10:57.029Z,18.98
2018-05-07T20:13:24.703Z,19.06
2018-05-07T20:15:52.329Z,18.98
2018-05-07T20:18:19.966Z,18.81
2018-05-07T20:20:47.673Z,18.81
2018-05-07T20:23:15.327Z,18.71
2018-05-07T20:25:43.059Z,18.59
2018-05-07T20:28:10.682Z,18.49
2018-05-07T20:30:38.297Z,18.52
2018-05-07T20:33:05.961Z,18.55
2018-05-07T20:35:33.682Z,18.51
2018-05-07T20:38:01.418Z,18.49
2018-05-07T20:40:29.188Z,18.51
2018-05-07T20:42:56.791Z,18.48
2018-05-07T20:45:24.466Z,18.34
2018-05-07T20:47:52.211Z,18.21
2018-05-07T20:50:19.833Z,18.22
2018-05-07T20:52:47.529Z,18.18
2018-05-07T20:55:15.266Z,18.12
2018-05-07T20:57:42.937Z,18.00
2018-05-07T21:00:10.646Z,18.13
2018-05-07T21:02:38.349Z,18.11
2018-05-07T21:05:06.060Z,18.13
2018-05-07T21:07:33.713Z,18.19
2018-05-07T21:10:01.413Z,18.26
2018-05-07T21:12:29.111Z,18.42
2018-05-07T21:14:56.770Z,18.58
2018-05-07T21:17:24.418Z,18.66
2018-05-07T21:19:52.118Z,18.71
2018-05-07T21:22:19.862Z,18.69
2018-05-07T21:24:47.645Z,18.62
2018-05-07T21:27:15.370Z,18.58
2018-05-07T21:29:43.007Z,18.45
2018-05-07T21:32:10.650Z,18.42
2018-05-07T21:34:40.058Z,18.36
2018-05-07T21:37:07.819Z,18.06
2018-05-07T21:39:35.430Z,17.89
2018-05-07T21:42:03.122Z,17.83
2018-05-07T21:44:30.737Z,17.65
2018-05-07T21:46:58.450Z,17.70
2018-05-07T21:49:26.081Z,17.62
2018-05-07T21:51:53.705Z,17.52
2018-05-07T21:54:21.366Z,17.64
2018-05-07T21:56:48.989Z,17.51
2018-05-07T21:59:16.642Z,17.40
2018-05-07T22:01:44.316Z,17.47
2018-05-07T22:04:11.942Z,17.35
2018-05-07T22:06:39.585Z,17.48
2018-05-07T22:09:07.234Z,17.35
2018-05-07T22:11:34.858Z,17.31
2018-05-07T22:14:02.541Z,17.22
2018-05-07T22:16:30.230Z,17.18
2018-05-07T22:18:57.901Z,17.21
2018-05-07T22:21:25.661Z,17.06
2018-05-07T22:23:53.321Z,17.09
2018-05-07T22:26:21.034Z,17.03
2018-05-07T22:28:48.698Z,17.06
2018-05-07T22:31:16.418Z,17.02
2018-05-07T22:33:44.077Z,17.04
2018-05-07T22:36:11.798Z,16.94
2018-05-07T22:38:39.483Z,16.84
2018-05-07T22:41:07.202Z,16.88
2018-05-07T22:43:34.877Z,16.77
2018-05-07T22:46:02.591Z,16.72
2018-05-07T22:48:30.208Z,16.63
2018-05-07T22:50:57.817Z,16.58
2018-05-07T22:53:25.494Z,16.72
2018-05-07T22:55:53.101Z,16.69
2018-05-07T22:58:20.777Z,16.63
2018-05-07T23:00:48.510Z,16.59
2018-05-07T23:03:16.167Z,16.62
2018-05-07T23:05:43.885Z,16.73
2018-05-07T23:08:11.629Z,16.74
2018-05-07T23:10:39.373Z,16.62
2018-05-07T23:13:07.057Z,16.63
2018-05-07T23:15:34.789Z,16.54
2018-05-07T23:18:02.480Z,16.55
2018-05-07T23:20:30.119Z,16.58
2018-05-07T23:22:57.786Z,16.44
2018-05-07T23:25:25.474Z,16.56
2018-05-07T23:27:53.138Z,16.42
2018-05-07T23:30:20.798Z,16.53
2018-05-07T23:32:48.497Z,16.45
2018-05-07T23:35:16.178Z,16.38
2018-05-07T23:37:43.846Z,16.43
2018-05-07T23:40:11.506Z,16.30
2018-05-07T23:42:39.214Z,16.34
2018-05-07T23:45:06.875Z,16.31
2018-05-07T23:47:34.590Z,16.38
2018-05-07T23:50:02.304Z,16.35
2018-05-07T23:52:29.993Z,16.36
2018-05-07T23:54:57.662Z,16.38
2018-05-07T23:57:25.369Z,16.38
2018-05-07T23:59:53.045Z,16.33
